Time;durP1;ratioP1;P1;durP2;ratioP2;P2;SDS_P1;SDS_P2;PMS_P1;PMS_P2;Temp;Humidity;BMP_temperature;BMP_pressure;BME280_temperature;BME280_humidity;BME280_pressure;Samples;Min_cycle;Max_cycle;Signal;HPM_P1;HPM_P2
2023/05/11 00:00:28;;;;;;;4.97;2.72;;;;;;;;;;5102482;28;20043;-74
2023/05/11 00:02:53;;;;;;;5.20;2.88;;;;;;;;;;5099578;28;20032;-74
2023/05/11 00:05:18;;;;;;;4.63;2.88;;;;;;;;;;5102692;28;20028;-74
2023/05/11 00:07:43;;;;;;;5.90;3.65;;;;;;;;;;5098994;28;20031;-74
2023/05/11 00:10:09;;;;;;;4.53;3.28;;;;;;;;;;5102657;28;20107;-74
2023/05/11 00:12:34;;;;;;;4.72;3.33;;;;;;;;;;5099059;28;20101;-74
2023/05/11 00:15:00;;;;;;;4.15;2.67;;;;;;;;;;5103487;28;20031;-74
2023/05/11 00:17:25;;;;;;;3.55;2.22;;;;;;;;;;5098842;28;20401;-74
2023/05/11 00:19:50;;;;;;;3.88;2.13;;;;;;;;;;5106378;28;20047;-74
2023/05/11 00:22:15;;;;;;;6.18;2.80;;;;;;;;;;5102909;28;20497;-74
2023/05/11 00:24:41;;;;;;;5.40;2.78;;;;;;;;;;5106463;28;20031;-74
2023/05/11 00:27:06;;;;;;;4.40;2.88;;;;;;;;;;5102837;28;20040;-74
2023/05/11 00:29:31;;;;;;;4.43;2.80;;;;;;;;;;5106072;28;20114;-74
2023/05/11 00:31:57;;;;;;;3.60;2.25;;;;;;;;;;5084725;28;20390;-74
2023/05/11 00:34:22;;;;;;;2.90;1.70;;;;;;;;;;5087780;28;20061;-74
2023/05/11 00:36:48;;;;;;;3.55;1.95;;;;;;;;;;5084571;28;20035;-74
2023/05/11 00:39:13;;;;;;;3.55;1.80;;;;;;;;;;5105515;28;20036;-74
2023/05/11 00:41:39;;;;;;;4.32;2.97;;;;;;;;;;5103160;28;20053;-73
2023/05/11 00:44:04;;;;;;;3.30;1.88;;;;;;;;;;5105660;28;20478;-73
2023/05/11 00:46:30;;;;;;;3.50;2.20;;;;;;;;;;5088061;28;20066;-73
2023/05/11 00:48:55;;;;;;;3.90;2.17;;;;;;;;;;5102821;28;20731;-74
2023/05/11 00:51:20;;;;;;;3.65;2.22;;;;;;;;;;5104937;28;20024;-73
2023/05/11 00:53:46;;;;;;;4.97;3.05;;;;;;;;;;5085079;28;20505;-74
2023/05/11 00:56:11;;;;;;;3.30;2.33;;;;;;;;;;5104969;28;20031;-74
2023/05/11 00:58:37;;;;;;;4.60;2.58;;;;;;;;;;5103279;28;20035;-74
2023/05/11 01:01:02;;;;;;;3.67;2.38;;;;;;;;;;5099927;28;20097;-74
2023/05/11 01:03:28;;;;;;;4.38;2.65;;;;;;;;;;5104594;28;20497;-74
2023/05/11 01:06:03;;;;;;;4.45;2.80;;;;;;;;;;5081838;28;20055;-74
2023/05/11 01:08:38;;;;;;;3.63;2.40;;;;;;;;;;5102408;28;20032;-74
2023/05/11 01:11:04;;;;;;;3.15;2.35;;;;;;;;;;5098607;28;20053;-74
2023/05/11 01:13:32;;;;;;;5.05;2.50;;;;;;;;;;5101755;28;20031;-74
2023/05/11 01:15:57;;;;;;;3.00;1.98;;;;;;;;;;5121911;22;20071;-78
2023/05/11 01:18:32;;;;;;;3.38;1.65;;;;;;;;;;5086789;28;20493;-78
2023/05/11 01:21:05;;;;;;;3.47;1.80;;;;;;;;;;5086964;28;20066;-77
2023/05/11 01:23:36;;;;;;;3.17;1.77;;;;;;;;;;5102674;28;20059;-78
2023/05/11 01:26:15;;;;;;;3.20;1.80;;;;;;;;;;5095304;28;20036;-78
2023/05/11 01:28:55;;;;;;;4.00;2.47;;;;;;;;;;5075644;28;20075;-78
2023/05/11 01:31:23;;;;;;;4.75;2.85;;;;;;;;;;5067809;28;20107;-77
2023/05/11 01:33:51;;;;;;;4.72;3.10;;;;;;;;;;5093653;28;20036;-77
2023/05/11 01:36:18;;;;;;;3.70;2.58;;;;;;;;;;5093628;28;20035;-78
2023/05/11 01:38:45;;;;;;;4.07;2.50;;;;;;;;;;5075113;28;20032;-78
2023/05/11 01:41:17;;;;;;;3.88;2.33;;;;;;;;;;5075510;28;20067;-77
2023/05/11 01:43:48;;;;;;;4.07;2.55;;;;;;;;;;5092427;28;20457;-78
2023/05/11 01:46:14;;;;;;;3.95;2.28;;;;;;;;;;5075458;28;20032;-78
2023/05/11 01:48:43;;;;;;;4.93;2.92;;;;;;;;;;5093517;28;20079;-78
2023/05/11 01:51:09;;;;;;;3.67;2.00;;;;;;;;;;5096295;28;20059;-78
2023/05/11 01:53:36;;;;;;;3.45;2.08;;;;;;;;;;5058783;28;20043;-79
2023/05/11 01:56:02;;;;;;;3.67;2.40;;;;;;;;;;5093195;28;20478;-78
2023/05/11 01:58:28;;;;;;;3.92;2.35;;;;;;;;;;5074599;28;20039;-77
2023/05/11 02:00:54;;;;;;;4.32;2.58;;;;;;;;;;5074798;28;20046;-78
2023/05/11 02:03:20;;;;;;;3.78;2.03;;;;;;;;;;5093161;28;20507;-78
2023/05/11 02:05:46;;;;;;;4.22;2.13;;;;;;;;;;5074767;28;20035;-78
2023/05/11 02:08:12;;;;;;;4.88;2.90;;;;;;;;;;5074833;28;20032;-78
2023/05/11 02:10:38;;;;;;;4.75;2.80;;;;;;;;;;5074790;28;20028;-78
2023/05/11 02:13:04;;;;;;;4.88;3.20;;;;;;;;;;5091582;28;20024;-78
2023/05/11 02:15:30;;;;;;;4.47;3.15;;;;;;;;;;5077895;28;20114;-78
2023/05/11 02:17:55;;;;;;;5.10;3.47;;;;;;;;;;5073810;28;20560;-78
2023/05/11 02:20:23;;;;;;;4.95;3.78;;;;;;;;;;5074424;28;20092;-78
2023/05/11 02:22:49;;;;;;;5.57;3.60;;;;;;;;;;5092588;28;20096;-78
2023/05/11 02:25:15;;;;;;;5.45;3.50;;;;;;;;;;5074409;28;20028;-77
2023/05/11 02:27:41;;;;;;;6.28;3.53;;;;;;;;;;5074581;28;20055;-78
2023/05/11 02:30:07;;;;;;;5.30;3.53;;;;;;;;;;5074241;28;20233;-78
2023/05/11 02:32:36;;;;;;;6.40;3.40;;;;;;;;;;5074557;28;20032;-77
2023/05/11 02:35:05;;;;;;;6.22;3.78;;;;;;;;;;5072797;28;20027;-78
2023/05/11 02:37:32;;;;;;;5.07;3.80;;;;;;;;;;5091677;28;20032;-78
2023/05/11 02:39:59;;;;;;;6.75;3.70;;;;;;;;;;5092100;28;20039;-78
2023/05/11 02:42:26;;;;;;;5.03;3.45;;;;;;;;;;5092335;28;20039;-78
2023/05/11 02:45:02;;;;;;;4.82;3.63;;;;;;;;;;5092576;28;20933;-78
2023/05/11 02:47:31;;;;;;;6.22;4.50;;;;;;;;;;5093096;28;20099;-78
2023/05/11 02:49:57;;;;;;;7.93;5.60;;;;;;;;;;5073685;28;20501;-78
2023/05/11 02:52:26;;;;;;;8.40;5.82;;;;;;;;;;5070500;28;20028;-77
2023/05/11 02:54:52;;;;;;;8.60;5.95;;;;;;;;;;5074177;28;20406;-78
2023/05/11 02:57:18;;;;;;;11.50;6.60;;;;;;;;;;5073906;28;20130;-78
2023/05/11 02:59:45;;;;;;;9.05;6.03;;;;;;;;;;5073897;28;20440;-78
2023/05/11 03:02:11;;;;;;;6.88;4.95;;;;;;;;;;5074119;28;20031;-78
2023/05/11 03:04:37;;;;;;;7.28;4.57;;;;;;;;;;5074038;28;20028;-77
2023/05/11 03:07:02;;;;;;;7.25;5.00;;;;;;;;;;5074097;28;20463;-77
2023/05/11 03:09:27;;;;;;;8.00;5.85;;;;;;;;;;5091687;28;20062;-77
2023/05/11 03:11:53;;;;;;;7.65;5.78;;;;;;;;;;5073747;28;20028;-77
2023/05/11 03:14:18;;;;;;;6.90;5.38;;;;;;;;;;5073498;28;20024;-77
2023/05/11 03:16:44;;;;;;;7.43;5.72;;;;;;;;;;5075728;28;20028;-78
2023/05/11 03:19:10;;;;;;;8.05;6.45;;;;;;;;;;5076221;28;20024;-78
2023/05/11 03:21:37;;;;;;;10.30;6.50;;;;;;;;;;5073386;28;20028;-78
2023/05/11 03:24:03;;;;;;;15.70;8.13;;;;;;;;;;5091354;28;20097;-77
2023/05/11 03:26:30;;;;;;;13.77;9.63;;;;;;;;;;5072874;28;20034;-78
2023/05/11 03:28:57;;;;;;;10.07;8.30;;;;;;;;;;5056666;28;20051;-78
2023/05/11 03:31:22;;;;;;;17.23;7.50;;;;;;;;;;5074011;28;20451;-78
2023/05/11 03:33:48;;;;;;;12.75;7.57;;;;;;;;;;5092056;28;20047;-78
2023/05/11 03:36:14;;;;;;;14.57;6.28;;;;;;;;;;5092474;28;20387;-78
2023/05/11 03:38:40;;;;;;;8.43;6.35;;;;;;;;;;5057751;28;20028;-78
2023/05/11 03:41:10;;;;;;;8.32;5.18;;;;;;;;;;5074300;28;20020;-78
2023/05/11 03:43:37;;;;;;;6.82;4.38;;;;;;;;;;5084947;28;20429;-78
2023/05/11 03:46:03;;;;;;;7.70;4.63;;;;;;;;;;5074164;28;20028;-78
2023/05/11 03:48:28;;;;;;;6.53;4.00;;;;;;;;;;5098362;28;20031;-78
2023/05/11 03:50:55;;;;;;;6.95;4.38;;;;;;;;;;5078540;28;20356;-78
2023/05/11 03:53:20;;;;;;;7.03;4.60;;;;;;;;;;5095865;28;20028;-78
2023/05/11 03:55:45;;;;;;;7.63;4.90;;;;;;;;;;5060759;28;20073;-78
2023/05/11 03:58:11;;;;;;;6.70;4.57;;;;;;;;;;5096923;28;20073;-78
2023/05/11 04:00:37;;;;;;;7.10;5.10;;;;;;;;;;5076973;28;20032;-78
2023/05/11 04:03:04;;;;;;;11.27;5.60;;;;;;;;;;5094476;28;20035;-78
2023/05/11 04:05:29;;;;;;;5.82;4.72;;;;;;;;;;5076517;28;20464;-78
2023/05/11 04:07:54;;;;;;;6.03;4.50;;;;;;;;;;5094576;28;20081;-77
2023/05/11 04:10:21;;;;;;;7.28;4.40;;;;;;;;;;5093838;28;20103;-78
2023/05/11 04:12:46;;;;;;;6.70;4.72;;;;;;;;;;5094157;28;20112;-77
2023/05/11 04:15:11;;;;;;;7.03;5.15;;;;;;;;;;5078017;28;20092;-78
2023/05/11 04:17:37;;;;;;;7.63;5.50;;;;;;;;;;5096206;28;20040;-78
2023/05/11 04:20:02;;;;;;;7.32;5.43;;;;;;;;;;5078586;28;20020;-79
2023/05/11 04:22:27;;;;;;;9.20;7.00;;;;;;;;;;5096715;28;20028;-79
2023/05/11 04:24:53;;;;;;;8.88;5.75;;;;;;;;;;5095346;28;20027;-78
2023/05/11 04:27:18;;;;;;;12.23;8.35;;;;;;;;;;5076065;28;20123;-78
2023/05/11 04:29:43;;;;;;;9.88;7.78;;;;;;;;;;5101750;28;20111;-79
2023/05/11 04:32:09;;;;;;;8.15;6.47;;;;;;;;;;5078313;28;20027;-78
2023/05/11 04:34:34;;;;;;;9.48;5.75;;;;;;;;;;5096297;28;20047;-78
2023/05/11 04:37:06;;;;;;;6.82;5.07;;;;;;;;;;5077917;28;20098;-78
2023/05/11 04:39:32;;;;;;;9.27;5.65;;;;;;;;;;5077756;28;20025;-78
2023/05/11 04:41:58;;;;;;;7.68;4.53;;;;;;;;;;5078262;28;20064;-78
2023/05/11 04:44:24;;;;;;;6.85;4.75;;;;;;;;;;5061459;28;20020;-78
2023/05/11 04:46:52;;;;;;;6.68;4.60;;;;;;;;;;5093746;28;20035;-79
2023/05/11 04:49:18;;;;;;;6.35;4.30;;;;;;;;;;5077898;28;20032;-79
2023/05/11 04:51:43;;;;;;;6.72;4.25;;;;;;;;;;5078020;28;20036;-78
2023/05/11 04:54:09;;;;;;;6.47;4.60;;;;;;;;;;5076096;28;20016;-79
2023/05/11 04:56:39;;;;;;;7.43;5.45;;;;;;;;;;5083137;28;20107;-77
2023/05/11 04:59:04;;;;;;;5.53;3.95;;;;;;;;;;5076485;28;20024;-78
2023/05/11 05:01:29;;;;;;;6.45;4.40;;;;;;;;;;5077884;28;20039;-79
2023/05/11 05:03:55;;;;;;;7.05;4.78;;;;;;;;;;5095890;28;20024;-78
2023/05/11 05:06:20;;;;;;;13.15;8.70;;;;;;;;;;5095513;28;20043;-78
2023/05/11 05:08:45;;;;;;;9.02;7.07;;;;;;;;;;5095366;28;20024;-79
2023/05/11 05:11:10;;;;;;;8.02;6.50;;;;;;;;;;5076534;28;20056;-79
2023/05/11 05:13:36;;;;;;;12.55;5.43;;;;;;;;;;5077853;28;20020;-79
2023/05/11 05:16:01;;;;;;;8.55;4.30;;;;;;;;;;5076172;28;20063;-79
2023/05/11 05:18:26;;;;;;;7.43;4.78;;;;;;;;;;5076623;28;20032;-78
2023/05/11 05:20:51;;;;;;;15.68;10.05;;;;;;;;;;5076807;28;20032;-78
2023/05/11 05:23:17;;;;;;;15.13;10.60;;;;;;;;;;5075893;28;20033;-78
2023/05/11 05:25:43;;;;;;;17.17;12.07;;;;;;;;;;5076315;28;20107;-78
2023/05/11 05:28:08;;;;;;;12.02;9.82;;;;;;;;;;5077476;28;20024;-78
2023/05/11 05:30:35;;;;;;;9.15;7.90;;;;;;;;;;5077362;28;20062;-78
2023/05/11 05:33:00;;;;;;;8.50;6.38;;;;;;;;;;5069350;28;20024;-78
2023/05/11 05:35:26;;;;;;;8.82;6.90;;;;;;;;;;5085517;28;20036;-78
2023/05/11 05:37:51;;;;;;;9.70;6.88;;;;;;;;;;5076824;28;20020;-78
2023/05/11 05:40:17;;;;;;;8.05;6.78;;;;;;;;;;5076300;28;20526;-78
2023/05/11 05:42:49;;;;;;;7.20;5.97;;;;;;;;;;5077198;28;20028;-78
2023/05/11 05:45:18;;;;;;;6.93;4.90;;;;;;;;;;5080582;28;20091;-78
2023/05/11 05:47:44;;;;;;;9.63;6.32;;;;;;;;;;5076778;28;20024;-78
2023/05/11 05:50:10;;;;;;;8.88;6.35;;;;;;;;;;5077034;28;20066;-78
2023/05/11 05:52:36;;;;;;;9.70;6.45;;;;;;;;;;5077189;28;20522;-78
2023/05/11 05:55:01;;;;;;;7.57;5.55;;;;;;;;;;5076887;28;20028;-78
2023/05/11 05:57:29;;;;;;;7.32;5.90;;;;;;;;;;5076940;28;20043;-78
2023/05/11 05:59:55;;;;;;;7.43;6.03;;;;;;;;;;5059706;28;20028;-78
2023/05/11 06:02:20;;;;;;;8.75;7.22;;;;;;;;;;5076352;28;20402;-78
2023/05/11 06:04:46;;;;;;;9.95;7.85;;;;;;;;;;5094583;28;20031;-78
2023/05/11 06:07:13;;;;;;;12.73;10.15;;;;;;;;;;5076252;28;20050;-79
2023/05/11 06:09:38;;;;;;;8.50;6.35;;;;;;;;;;5083999;28;20109;-78
2023/05/11 06:12:03;;;;;;;9.68;7.60;;;;;;;;;;5094292;28;20486;-78
2023/05/11 06:14:31;;;;;;;8.18;5.25;;;;;;;;;;5078303;28;20027;-79
2023/05/11 06:16:57;;;;;;;5.88;4.32;;;;;;;;;;5082051;28;20392;-78
2023/05/11 06:19:22;;;;;;;9.18;6.85;;;;;;;;;;5102265;28;20442;-78
2023/05/11 06:21:48;;;;;;;10.25;7.60;;;;;;;;;;5076160;28;20035;-78
2023/05/11 06:24:14;;;;;;;8.18;6.45;;;;;;;;;;5075271;28;20031;-78
2023/05/11 06:26:41;;;;;;;9.75;7.60;;;;;;;;;;5075573;28;20123;-78
2023/05/11 06:29:06;;;;;;;10.27;8.20;;;;;;;;;;5100856;28;20133;-78
2023/05/11 06:31:32;;;;;;;10.00;8.27;;;;;;;;;;5075917;28;20113;-79
2023/05/11 06:33:58;;;;;;;11.77;8.82;;;;;;;;;;5094663;28;20664;-79
2023/05/11 06:36:26;;;;;;;7.70;6.35;;;;;;;;;;5072732;28;20024;-78
2023/05/11 06:38:51;;;;;;;9.48;8.05;;;;;;;;;;5075868;28;20464;-78
2023/05/11 06:41:17;;;;;;;9.48;7.95;;;;;;;;;;5075876;28;20043;-79
2023/05/11 06:43:42;;;;;;;7.15;5.05;;;;;;;;;;5094520;28;20084;-79
2023/05/11 06:46:18;;;;;;;9.15;6.13;;;;;;;;;;5078319;28;20401;-78
2023/05/11 06:48:44;;;;;;;5.15;2.92;;;;;;;;;;5075868;28;20028;-79
2023/05/11 06:51:10;;;;;;;8.80;6.28;;;;;;;;;;5094008;28;20028;-78
2023/05/11 06:53:35;;;;;;;4.70;3.10;;;;;;;;;;5094029;28;20032;-79
2023/05/11 06:56:01;;;;;;;7.60;6.13;;;;;;;;;;5093925;28;20039;-79
2023/05/11 06:58:26;;;;;;;7.32;5.88;;;;;;;;;;5075812;28;20422;-79
2023/05/11 07:00:51;;;;;;;10.38;6.97;;;;;;;;;;5093638;28;20032;-79
2023/05/11 07:03:16;;;;;;;8.02;5.20;;;;;;;;;;5093964;28;20075;-79
2023/05/11 07:05:41;;;;;;;8.80;6.93;;;;;;;;;;5094223;28;20032;-79
2023/05/11 07:08:07;;;;;;;6.75;4.45;;;;;;;;;;5094125;28;20032;-79
2023/05/11 07:10:32;;;;;;;5.22;3.70;;;;;;;;;;5091625;28;20482;-78
2023/05/11 07:12:57;;;;;;;7.18;5.07;;;;;;;;;;5093423;28;20028;-78
2023/05/11 07:15:23;;;;;;;10.02;6.97;;;;;;;;;;5096013;28;20032;-78
2023/05/11 07:17:48;;;;;;;7.85;6.65;;;;;;;;;;5093607;28;20113;-78
2023/05/11 07:20:14;;;;;;;9.75;7.10;;;;;;;;;;5116862;22;20051;-78
2023/05/11 07:22:39;;;;;;;7.97;5.53;;;;;;;;;;5107324;28;20398;-77
2023/05/11 07:25:04;;;;;;;7.82;5.88;;;;;;;;;;5102512;28;20034;-78
2023/05/11 07:27:30;;;;;;;10.20;6.65;;;;;;;;;;5086418;28;20031;-77
2023/05/11 07:29:55;;;;;;;7.03;5.85;;;;;;;;;;5083492;28;20062;-77
2023/05/11 07:32:20;;;;;;;8.30;5.53;;;;;;;;;;5102807;28;20501;-78
2023/05/11 07:34:46;;;;;;;7.18;4.20;;;;;;;;;;5104873;28;20189;-78
2023/05/11 07:37:11;;;;;;;6.32;2.22;;;;;;;;;;5102079;28;20061;-78
2023/05/11 07:39:36;;;;;;;8.00;4.45;;;;;;;;;;5104783;28;20096;-77
2023/05/11 07:42:01;;;;;;;8.03;3.60;;;;;;;;;;5101090;28;20024;-77
2023/05/11 07:44:26;;;;;;;9.02;4.55;;;;;;;;;;5085840;28;20277;-77
2023/05/11 07:46:52;;;;;;;7.20;4.77;;;;;;;;;;5085197;28;20190;-78
2023/05/11 07:49:17;;;;;;;7.82;4.43;;;;;;;;;;5105064;28;20289;-77
2023/05/11 07:51:43;;;;;;;8.48;4.78;;;;;;;;;;5101530;28;20036;-77
2023/05/11 07:54:08;;;;;;;6.28;3.72;;;;;;;;;;5103018;28;20036;-78
2023/05/11 07:56:33;;;;;;;9.07;5.28;;;;;;;;;;5086903;28;20031;-77
2023/05/11 07:58:58;;;;;;;6.05;4.50;;;;;;;;;;5096387;28;20043;-77
2023/05/11 08:01:24;;;;;;;5.07;3.90;;;;;;;;;;5104902;28;20023;-79
2023/05/11 08:03:49;;;;;;;7.07;4.00;;;;;;;;;;5101595;28;20030;-78
2023/05/11 08:06:14;;;;;;;4.35;1.92;;;;;;;;;;5082934;28;20092;-77
2023/05/11 08:08:39;;;;;;;4.80;3.33;;;;;;;;;;5104719;28;20108;-78
2023/05/11 08:11:05;;;;;;;6.18;3.83;;;;;;;;;;5100827;28;20361;-78
2023/05/11 08:13:30;;;;;;;5.90;4.78;;;;;;;;;;5101279;28;20064;-79
2023/05/11 08:15:56;;;;;;;5.72;3.72;;;;;;;;;;5105314;28;20043;-77
2023/05/11 08:18:21;;;;;;;4.78;3.10;;;;;;;;;;5104138;28;20047;-77
2023/05/11 08:20:46;;;;;;;9.55;3.60;;;;;;;;;;5100960;28;20042;-77
2023/05/11 08:23:16;;;;;;;7.40;2.80;;;;;;;;;;5104168;28;20028;-78
2023/05/11 08:25:47;;;;;;;4.78;3.95;;;;;;;;;;5100299;28;20104;-78
2023/05/11 08:28:12;;;;;;;5.63;3.03;;;;;;;;;;5102086;28;20129;-78
2023/05/11 08:30:38;;;;;;;4.47;1.92;;;;;;;;;;5101583;28;20287;-78
2023/05/11 08:33:03;;;;;;;4.70;2.22;;;;;;;;;;5102791;28;20051;-78
2023/05/11 08:35:29;;;;;;;10.53;4.37;;;;;;;;;;5104449;28;20505;-77
2023/05/11 08:37:54;;;;;;;5.88;4.40;;;;;;;;;;5106611;28;20274;-78
2023/05/11 08:40:20;;;;;;;5.47;4.13;;;;;;;;;;5104875;28;20442;-76
2023/05/11 08:42:46;;;;;;;7.65;3.17;;;;;;;;;;5106714;28;20042;-78
2023/05/11 08:45:12;;;;;;;5.28;2.60;;;;;;;;;;5107801;28;20039;-78
2023/05/11 08:47:37;;;;;;;5.60;2.20;;;;;;;;;;5104649;28;20111;-78
2023/05/11 08:50:03;;;;;;;5.40;3.33;;;;;;;;;;5087852;28;20024;-78
2023/05/11 08:52:29;;;;;;;5.50;3.20;;;;;;;;;;5104608;28;20036;-78
2023/05/11 08:54:54;;;;;;;6.28;3.08;;;;;;;;;;5107073;28;20036;-79
2023/05/11 08:57:19;;;;;;;4.95;3.85;;;;;;;;;;5104102;28;20036;-77
2023/05/11 08:59:45;;;;;;;6.95;4.43;;;;;;;;;;5103445;28;20059;-78
2023/05/11 09:02:14;;;;;;;4.68;3.30;;;;;;;;;;5103659;28;20385;-78
2023/05/11 09:04:40;;;;;;;4.43;3.17;;;;;;;;;;5099810;28;20363;-78
2023/05/11 09:07:05;;;;;;;6.60;3.63;;;;;;;;;;5107251;28;20093;-78
2023/05/11 09:09:31;;;;;;;5.65;3.53;;;;;;;;;;5103543;28;20054;-78
2023/05/11 09:11:57;;;;;;;6.00;2.50;;;;;;;;;;5103317;28;20024;-79
2023/05/11 09:14:23;;;;;;;4.38;3.30;;;;;;;;;;5106585;28;20474;-79
2023/05/11 09:16:48;;;;;;;4.13;2.70;;;;;;;;;;5107013;28;20034;-78
2023/05/11 09:19:15;;;;;;;7.70;2.25;;;;;;;;;;5103574;28;20165;-78
2023/05/11 09:21:40;;;;;;;6.90;2.80;;;;;;;;;;5103788;28;20036;-77
2023/05/11 09:24:06;;;;;;;6.57;3.05;;;;;;;;;;5105679;28;20039;-78
2023/05/11 09:26:32;;;;;;;7.60;3.28;;;;;;;;;;5105557;28;20031;-78
2023/05/11 09:28:58;;;;;;;8.70;2.90;;;;;;;;;;5103958;28;20059;-78
2023/05/11 09:31:39;;;;;;;6.47;2.85;;;;;;;;;;5106320;28;20039;-78
2023/05/11 09:34:08;;;;;;;6.70;3.67;;;;;;;;;;5099004;28;20107;-78
2023/05/11 09:36:33;;;;;;;5.88;3.13;;;;;;;;;;5099021;28;20032;-78
2023/05/11 09:39:01;;;;;;;7.43;2.90;;;;;;;;;;5105851;28;20379;-78
2023/05/11 09:41:26;;;;;;;6.97;2.15;;;;;;;;;;5103449;28;20036;-79
2023/05/11 09:43:51;;;;;;;7.80;2.10;;;;;;;;;;5105180;28;20051;-78
2023/05/11 09:46:20;;;;;;;7.25;1.98;;;;;;;;;;5106042;28;20285;-79
2023/05/11 09:48:56;;;;;;;5.75;2.42;;;;;;;;;;5104251;28;20020;-78
2023/05/11 09:51:27;;;;;;;5.00;2.95;;;;;;;;;;5105416;28;20444;-78
2023/05/11 09:53:53;;;;;;;3.97;2.58;;;;;;;;;;5103226;28;20027;-78
2023/05/11 09:56:18;;;;;;;10.93;3.97;;;;;;;;;;5099631;28;20426;-79
2023/05/11 09:58:47;;;;;;;6.77;2.10;;;;;;;;;;5106233;28;20043;-78
2023/05/11 10:01:13;;;;;;;6.15;2.60;;;;;;;;;;5102577;28;20290;-78
2023/05/11 10:03:49;;;;;;;3.15;2.03;;;;;;;;;;5105124;28;20039;-78
2023/05/11 10:06:14;;;;;;;6.65;3.33;;;;;;;;;;5101724;28;20087;-78
2023/05/11 10:08:40;;;;;;;5.50;2.65;;;;;;;;;;5103524;28;20028;-78
2023/05/11 10:11:07;;;;;;;2.90;1.67;;;;;;;;;;5102835;28;20416;-78
2023/05/11 10:13:32;;;;;;;7.38;3.05;;;;;;;;;;5086416;28;20127;-78
2023/05/11 10:16:01;;;;;;;6.70;1.90;;;;;;;;;;5102504;28;20115;-78
2023/05/11 10:18:26;;;;;;;5.13;2.97;;;;;;;;;;5105098;28;20378;-78
2023/05/11 10:20:52;;;;;;;6.00;2.60;;;;;;;;;;5099975;28;20058;-78
2023/05/11 10:23:17;;;;;;;3.83;2.33;;;;;;;;;;5104691;28;20489;-78
2023/05/11 10:25:43;;;;;;;5.43;2.60;;;;;;;;;;5101512;28;20036;-78
2023/05/11 10:28:09;;;;;;;3.90;1.80;;;;;;;;;;5105336;28;20032;-78
2023/05/11 10:30:34;;;;;;;4.35;1.80;;;;;;;;;;5101129;28;20107;-79
2023/05/11 10:33:00;;;;;;;4.78;2.20;;;;;;;;;;5105881;28;20529;-78
2023/05/11 10:35:26;;;;;;;3.58;1.80;;;;;;;;;;5102662;28;20043;-79
2023/05/11 10:37:52;;;;;;;2.78;2.00;;;;;;;;;;5100424;28;20028;-78
2023/05/11 10:40:17;;;;;;;5.38;3.28;;;;;;;;;;5104894;28;20111;-79
2023/05/11 10:42:57;;;;;;;5.53;2.67;;;;;;;;;;5102484;28;20024;-79
2023/05/11 10:45:35;;;;;;;5.50;3.35;;;;;;;;;;5102572;28;20391;-78
2023/05/11 10:48:09;;;;;;;5.88;2.40;;;;;;;;;;5098519;28;20440;-78
2023/05/11 10:50:53;;;;;;;3.72;1.88;;;;;;;;;;5103579;28;20037;-79
2023/05/11 10:53:34;;;;;;;3.65;2.30;;;;;;;;;;5093767;28;20131;-79
2023/05/11 10:56:11;;;;;;;4.53;1.60;;;;;;;;;;5104856;28;20063;-78
2023/05/11 10:58:46;;;;;;;5.78;2.22;;;;;;;;;;5096784;28;20089;-79
2023/05/11 11:01:35;;;;;;;4.20;2.17;;;;;;;;;;5085488;28;20035;-79
2023/05/11 11:04:05;;;;;;;6.97;2.75;;;;;;;;;;5075136;28;20063;-79
2023/05/11 11:06:34;;;;;;;4.18;2.00;;;;;;;;;;5085030;28;20122;-78
2023/05/11 11:09:00;;;;;;;3.47;2.10;;;;;;;;;;5102917;28;20036;-79
2023/05/11 11:11:28;;;;;;;4.95;1.60;;;;;;;;;;5084389;28;20084;-79
2023/05/11 11:13:57;;;;;;;3.45;1.52;;;;;;;;;;5103572;28;20036;-80
2023/05/11 11:16:24;;;;;;;5.90;1.67;;;;;;;;;;5103915;28;20036;-79
2023/05/11 11:18:50;;;;;;;3.38;1.60;;;;;;;;;;5082855;28;20787;-78
2023/05/11 11:21:36;;;;;;;3.33;1.77;;;;;;;;;;5100552;28;20028;-79
2023/05/11 11:24:02;;;;;;;3.58;1.92;;;;;;;;;;5100735;28;20039;-78
2023/05/11 11:26:45;;;;;;;4.65;2.20;;;;;;;;;;5100924;28;20027;-79
2023/05/11 11:29:10;;;;;;;3.85;1.58;;;;;;;;;;5098979;28;20085;-79
2023/05/11 11:31:36;;;;;;;6.80;2.72;;;;;;;;;;5084070;28;20425;-79
2023/05/11 11:34:20;;;;;;;3.63;1.85;;;;;;;;;;5084544;28;20053;-79
2023/05/11 11:36:54;;;;;;;4.90;1.65;;;;;;;;;;5097659;28;20031;-78
2023/05/11 11:39:24;;;;;;;8.98;2.95;;;;;;;;;;5101979;28;20035;-79
2023/05/11 11:42:06;;;;;;;9.88;1.80;;;;;;;;;;5102248;28;20097;-79
2023/05/11 11:44:35;;;;;;;5.35;1.40;;;;;;;;;;5100268;28;20031;-79
2023/05/11 11:47:13;;;;;;;6.38;2.03;;;;;;;;;;5103447;28;20514;-79
2023/05/11 11:49:39;;;;;;;3.38;1.30;;;;;;;;;;5085329;28;20444;-79
2023/05/11 11:52:09;;;;;;;3.33;1.38;;;;;;;;;;5079588;28;20040;-78
2023/05/11 11:54:42;;;;;;;4.80;2.45;;;;;;;;;;5101259;28;20043;-79
2023/05/11 11:57:27;;;;;;;3.72;1.95;;;;;;;;;;5098113;28;20066;-79
2023/05/11 11:59:53;;;;;;;4.03;1.52;;;;;;;;;;5099436;28;20028;-79
2023/05/11 12:02:18;;;;;;;2.33;1.40;;;;;;;;;;5104039;28;20571;-79
2023/05/11 12:04:49;;;;;;;4.82;1.63;;;;;;;;;;5099042;28;20031;-80
2023/05/11 12:07:17;;;;;;;3.53;2.05;;;;;;;;;;5101363;28;20123;-79
2023/05/11 12:09:44;;;;;;;6.05;2.60;;;;;;;;;;5105626;28;20478;-79
2023/05/11 12:12:09;;;;;;;3.95;1.42;;;;;;;;;;5086174;28;20051;-79
2023/05/11 12:14:34;;;;;;;6.80;1.75;;;;;;;;;;5084007;28;20449;-80
2023/05/11 12:17:00;;;;;;;4.30;1.88;;;;;;;;;;5088653;28;20040;-78
2023/05/11 12:19:27;;;;;;;2.50;1.20;;;;;;;;;;5087979;28;20036;-79
2023/05/11 12:21:52;;;;;;;2.90;1.98;;;;;;;;;;5107218;28;20092;-79
2023/05/11 12:24:17;;;;;;;3.30;1.88;;;;;;;;;;5106540;28;20032;-79
2023/05/11 12:26:43;;;;;;;5.90;1.97;;;;;;;;;;5105142;28;20062;-80
2023/05/11 12:29:12;;;;;;;5.88;1.27;;;;;;;;;;5105883;28;20099;-79
2023/05/11 12:31:38;;;;;;;7.93;3.13;;;;;;;;;;5107194;28;20031;-80
2023/05/11 12:34:03;;;;;;;4.35;2.35;;;;;;;;;;5105067;28;20089;-79
2023/05/11 12:36:30;;;;;;;4.80;2.78;;;;;;;;;;5103991;28;20458;-80
2023/05/11 12:38:56;;;;;;;5.85;3.53;;;;;;;;;;5107740;28;20058;-80
2023/05/11 12:41:21;;;;;;;3.65;2.17;;;;;;;;;;5105031;28;20025;-80
2023/05/11 12:43:50;;;;;;;13.13;4.18;;;;;;;;;;5090268;28;20111;-80
2023/05/11 12:46:16;;;;;;;4.25;2.22;;;;;;;;;;5104369;28;20036;-80
2023/05/11 12:48:42;;;;;;;6.57;3.30;;;;;;;;;;5107759;28;20519;-79
2023/05/11 12:51:07;;;;;;;3.78;2.30;;;;;;;;;;5086787;28;20415;-80
2023/05/11 12:53:36;;;;;;;5.43;2.20;;;;;;;;;;5104914;28;20031;-79
2023/05/11 12:56:01;;;;;;;4.93;3.03;;;;;;;;;;5105492;28;20024;-79
2023/05/11 12:58:34;;;;;;;8.32;4.18;;;;;;;;;;5105440;28;20449;-79
2023/05/11 13:01:00;;;;;;;5.28;2.60;;;;;;;;;;5104577;28;20085;-79
2023/05/11 13:03:26;;;;;;;3.45;1.80;;;;;;;;;;5086360;28;20040;-79
2023/05/11 13:06:02;;;;;;;6.10;3.58;;;;;;;;;;5099837;28;20397;-79
2023/05/11 13:08:28;;;;;;;6.25;3.65;;;;;;;;;;5100785;28;20028;-79
2023/05/11 13:10:53;;;;;;;6.07;3.08;;;;;;;;;;5111915;28;20020;-79
2023/05/11 13:13:26;;;;;;;5.07;2.20;;;;;;;;;;5088299;28;20027;-79
2023/05/11 13:15:51;;;;;;;4.95;2.20;;;;;;;;;;5102410;28;20332;-79
2023/05/11 13:18:16;;;;;;;4.60;2.10;;;;;;;;;;5104724;28;20482;-78
2023/05/11 13:20:42;;;;;;;5.53;2.63;;;;;;;;;;5102979;28;20362;-80
2023/05/11 13:23:12;;;;;;;3.75;2.00;;;;;;;;;;5142089;22;20876;-77
2023/05/11 13:25:50;;;;;;;4.57;2.83;;;;;;;;;;5101013;28;20043;-77
2023/05/11 13:28:17;;;;;;;5.85;3.08;;;;;;;;;;5084757;28;20031;-78
2023/05/11 13:30:42;;;;;;;4.00;2.35;;;;;;;;;;5102367;28;20040;-77
2023/05/11 13:33:08;;;;;;;3.20;1.88;;;;;;;;;;5099772;28;20041;-77
2023/05/11 13:35:40;;;;;;;6.25;2.38;;;;;;;;;;5091899;28;20071;-77
2023/05/11 13:38:06;;;;;;;8.60;3.35;;;;;;;;;;5085327;28;20024;-77
2023/05/11 13:40:31;;;;;;;7.45;2.60;;;;;;;;;;5087440;28;20035;-77
2023/05/11 13:42:56;;;;;;;8.65;3.30;;;;;;;;;;5095388;28;20024;-77
2023/05/11 13:45:21;;;;;;;6.32;2.40;;;;;;;;;;5092123;28;20093;-77
2023/05/11 13:47:47;;;;;;;8.02;3.53;;;;;;;;;;5075636;28;20111;-77
2023/05/11 13:50:12;;;;;;;5.68;2.47;;;;;;;;;;5089920;28;20037;-76
2023/05/11 13:52:39;;;;;;;9.02;3.67;;;;;;;;;;5084016;28;20032;-76
2023/05/11 13:55:04;;;;;;;5.45;1.85;;;;;;;;;;5088387;28;20029;-76
2023/05/11 13:57:29;;;;;;;5.75;2.22;;;;;;;;;;5088040;28;20035;-76
2023/05/11 13:59:55;;;;;;;4.13;1.70;;;;;;;;;;5090892;28;20497;-75
2023/05/11 14:02:20;;;;;;;6.78;2.75;;;;;;;;;;5070654;28;20031;-76
2023/05/11 14:04:46;;;;;;;4.20;2.85;;;;;;;;;;5082666;28;20028;-76
2023/05/11 14:07:11;;;;;;;3.70;2.08;;;;;;;;;;5086117;28;20064;-77
2023/05/11 14:09:36;;;;;;;5.00;2.20;;;;;;;;;;5087074;28;20038;-77
2023/05/11 14:12:02;;;;;;;6.72;2.05;;;;;;;;;;5091614;28;20032;-77
2023/05/11 14:14:27;;;;;;;3.40;1.90;;;;;;;;;;5090097;28;20547;-77
2023/05/11 14:16:52;;;;;;;7.05;2.30;;;;;;;;;;5088574;28;20036;-77
2023/05/11 14:19:17;;;;;;;4.60;2.10;;;;;;;;;;5086852;28;20028;-77
2023/05/11 14:21:42;;;;;;;3.27;1.77;;;;;;;;;;5089482;28;20270;-77
2023/05/11 14:24:08;;;;;;;3.83;2.80;;;;;;;;;;5090139;28;20266;-78
2023/05/11 14:26:33;;;;;;;2.80;1.60;;;;;;;;;;5088365;28;20298;-77
2023/05/11 14:28:58;;;;;;;8.57;2.30;;;;;;;;;;5089507;28;20078;-78
2023/05/11 14:31:23;;;;;;;5.03;1.70;;;;;;;;;;5086970;28;20278;-77
2023/05/11 14:33:49;;;;;;;5.97;2.00;;;;;;;;;;5087577;28;20020;-76
2023/05/11 14:36:15;;;;;;;4.50;1.60;;;;;;;;;;5081320;28;20056;-77
2023/05/11 14:38:40;;;;;;;2.85;1.50;;;;;;;;;;5091971;28;20402;-78